sensor_id;sensor_type;location;lat;lon;timestamp;temperature;humidity
29363;DHT22;16349;53.672;10.014;2022-09-17T00:01:22;12.20;99.90
29363;DHT22;16349;53.672;10.014;2022-09-17T00:03:49;12.20;99.90
29363;DHT22;16349;53.672;10.014;2022-09-17T00:06:19;12.20;99.90
29363;DHT22;16349;53.672;10.014;2022-09-17T00:08:48;12.10;99.90
29363;DHT22;16349;53.672;10.014;2022-09-17T00:11:17;12.20;99.90
29363;DHT22;16349;53.672;10.014;2022-09-17T00:13:46;12.10;99.90
29363;DHT22;16349;53.672;10.014;2022-09-17T00:16:21;12.10;99.90
29363;DHT22;16349;53.672;10.014;2022-09-17T00:18:49;12.20;99.90
29363;DHT22;16349;53.672;10.014;2022-09-17T00:21:17;12.20;99.90
29363;DHT22;16349;53.672;10.014;2022-09-17T00:23:44;12.10;99.90
29363;DHT22;16349;53.672;10.014;2022-09-17T00:26:13;12.10;99.90
29363;DHT22;16349;53.672;10.014;2022-09-17T00:28:40;12.10;99.90
29363;DHT22;16349;53.672;10.014;2022-09-17T00:31:10;12.10;99.90
29363;DHT22;16349;53.672;10.014;2022-09-17T00:33:36;12.10;99.90
29363;DHT22;16349;53.672;10.014;2022-09-17T00:36:04;12.10;99.90
29363;DHT22;16349;53.672;10.014;2022-09-17T00:38:32;12.10;99.90
29363;DHT22;16349;53.672;10.014;2022-09-17T00:40:59;12.10;99.90
29363;DHT22;16349;53.672;10.014;2022-09-17T00:43:37;12.10;99.90
29363;DHT22;16349;53.672;10.014;2022-09-17T00:46:08;12.10;99.90
29363;DHT22;16349;53.672;10.014;2022-09-17T00:48:36;12.00;99.90
29363;DHT22;16349;53.672;10.014;2022-09-17T00:51:05;12.00;99.90
29363;DHT22;16349;53.672;10.014;2022-09-17T00:53:33;12.00;99.90
29363;DHT22;16349;53.672;10.014;2022-09-17T00:56:03;12.00;99.90
29363;DHT22;16349;53.672;10.014;2022-09-17T00:58:31;12.00;99.90
29363;DHT22;16349;53.672;10.014;2022-09-17T01:01:00;12.00;99.90
29363;DHT22;16349;53.672;10.014;2022-09-17T01:03:27;12.00;99.90
29363;DHT22;16349;53.672;10.014;2022-09-17T01:05:59;11.90;99.90
29363;DHT22;16349;53.672;10.014;2022-09-17T01:08:36;11.90;99.90
29363;DHT22;16349;53.672;10.014;2022-09-17T01:11:16;11.90;99.90
29363;DHT22;16349;53.672;10.014;2022-09-17T01:13:55;11.90;99.90
29363;DHT22;16349;53.672;10.014;2022-09-17T01:16:35;11.90;99.90
29363;DHT22;16349;53.672;10.014;2022-09-17T01:19:18;11.90;99.90
29363;DHT22;16349;53.672;10.014;2022-09-17T01:21:57;11.80;99.90
29363;DHT22;16349;53.672;10.014;2022-09-17T01:24:44;11.80;99.90
29363;DHT22;16349;53.672;10.014;2022-09-17T01:27:39;11.80;99.90
29363;DHT22;16349;53.672;10.014;2022-09-17T01:30:16;11.80;99.90
29363;DHT22;16349;53.672;10.014;2022-09-17T01:32:49;11.80;99.90
29363;DHT22;16349;53.672;10.014;2022-09-17T01:35:22;11.70;99.90
29363;DHT22;16349;53.672;10.014;2022-09-17T01:37:56;11.70;99.90
29363;DHT22;16349;53.672;10.014;2022-09-17T01:40:28;11.70;99.90
29363;DHT22;16349;53.672;10.014;2022-09-17T01:43:00;11.70;99.90
29363;DHT22;16349;53.672;10.014;2022-09-17T01:45:33;11.70;99.90
29363;DHT22;16349;53.672;10.014;2022-09-17T01:48:06;11.70;99.90
29363;DHT22;16349;53.672;10.014;2022-09-17T01:50:40;11.70;99.90
29363;DHT22;16349;53.672;10.014;2022-09-17T01:53:09;11.70;99.90
29363;DHT22;16349;53.672;10.014;2022-09-17T01:55:38;11.70;99.90
29363;DHT22;16349;53.672;10.014;2022-09-17T01:58:10;11.70;99.90
29363;DHT22;16349;53.672;10.014;2022-09-17T02:00:41;11.70;99.90
29363;DHT22;16349;53.672;10.014;2022-09-17T02:03:15;11.70;99.90
29363;DHT22;16349;53.672;10.014;2022-09-17T02:05:45;11.70;99.90
29363;DHT22;16349;53.672;10.014;2022-09-17T02:08:17;11.70;99.90
29363;DHT22;16349;53.672;10.014;2022-09-17T02:10:50;11.70;99.90
29363;DHT22;16349;53.672;10.014;2022-09-17T02:13:20;11.70;99.90
29363;DHT22;16349;53.672;10.014;2022-09-17T02:15:50;11.70;99.90
29363;DHT22;16349;53.672;10.014;2022-09-17T02:18:26;11.70;99.90
29363;DHT22;16349;53.672;10.014;2022-09-17T02:21:01;11.70;99.90
29363;DHT22;16349;53.672;10.014;2022-09-17T02:23:34;11.70;99.90
29363;DHT22;16349;53.672;10.014;2022-09-17T02:26:07;11.70;99.90
29363;DHT22;16349;53.672;10.014;2022-09-17T02:28:41;11.70;99.90
29363;DHT22;16349;53.672;10.014;2022-09-17T02:31:11;11.70;99.90
29363;DHT22;16349;53.672;10.014;2022-09-17T02:33:40;11.70;99.90
29363;DHT22;16349;53.672;10.014;2022-09-17T02:36:09;11.70;99.90
29363;DHT22;16349;53.672;10.014;2022-09-17T02:38:37;11.70;99.90
29363;DHT22;16349;53.672;10.014;2022-09-17T02:41:13;11.70;99.90
29363;DHT22;16349;53.672;10.014;2022-09-17T02:43:50;11.70;99.90
29363;DHT22;16349;53.672;10.014;2022-09-17T02:46:50;11.70;99.90
29363;DHT22;16349;53.672;10.014;2022-09-17T02:49:36;11.70;99.90
29363;DHT22;16349;53.672;10.014;2022-09-17T02:52:14;11.70;99.90
29363;DHT22;16349;53.672;10.014;2022-09-17T02:54:50;11.70;99.90
29363;DHT22;16349;53.672;10.014;2022-09-17T02:57:25;11.70;99.90
29363;DHT22;16349;53.672;10.014;2022-09-17T02:59:57;11.70;99.90
29363;DHT22;16349;53.672;10.014;2022-09-17T03:02:31;11.70;99.90
29363;DHT22;16349;53.672;10.014;2022-09-17T03:05:02;11.60;99.90
29363;DHT22;16349;53.672;10.014;2022-09-17T03:07:29;11.60;99.90
29363;DHT22;16349;53.672;10.014;2022-09-17T03:09:57;11.60;99.90
29363;DHT22;16349;53.672;10.014;2022-09-17T03:12:24;11.60;99.90
29363;DHT22;16349;53.672;10.014;2022-09-17T03:14:51;11.60;99.90
29363;DHT22;16349;53.672;10.014;2022-09-17T03:17:18;11.60;99.90
29363;DHT22;16349;53.672;10.014;2022-09-17T03:19:45;11.60;99.90
29363;DHT22;16349;53.672;10.014;2022-09-17T03:22:14;11.60;99.90
29363;DHT22;16349;53.672;10.014;2022-09-17T03:24:40;11.70;99.90
29363;DHT22;16349;53.672;10.014;2022-09-17T03:27:07;11.70;99.90
29363;DHT22;16349;53.672;10.014;2022-09-17T03:29:34;11.60;99.90
29363;DHT22;16349;53.672;10.014;2022-09-17T03:32:01;11.70;99.90
29363;DHT22;16349;53.672;10.014;2022-09-17T03:34:28;11.60;99.90
29363;DHT22;16349;53.672;10.014;2022-09-17T03:36:54;11.70;99.90
29363;DHT22;16349;53.672;10.014;2022-09-17T03:39:22;11.70;99.90
29363;DHT22;16349;53.672;10.014;2022-09-17T03:41:49;11.70;99.90
29363;DHT22;16349;53.672;10.014;2022-09-17T03:44:16;11.70;99.90
29363;DHT22;16349;53.672;10.014;2022-09-17T03:46:44;11.70;99.90
29363;DHT22;16349;53.672;10.014;2022-09-17T03:49:11;11.70;99.90
29363;DHT22;16349;53.672;10.014;2022-09-17T03:51:37;11.60;99.90
29363;DHT22;16349;53.672;10.014;2022-09-17T03:54:04;11.60;99.90
29363;DHT22;16349;53.672;10.014;2022-09-17T03:56:32;11.60;99.90
29363;DHT22;16349;53.672;10.014;2022-09-17T03:59:00;11.60;99.90
29363;DHT22;16349;53.672;10.014;2022-09-17T04:01:28;11.60;99.90
29363;DHT22;16349;53.672;10.014;2022-09-17T04:03:55;11.60;99.90
29363;DHT22;16349;53.672;10.014;2022-09-17T04:06:23;11.60;99.90
29363;DHT22;16349;53.672;10.014;2022-09-17T04:08:49;11.60;99.90
29363;DHT22;16349;53.672;10.014;2022-09-17T04:11:16;11.60;99.90
29363;DHT22;16349;53.672;10.014;2022-09-17T04:13:45;11.60;99.90
29363;DHT22;16349;53.672;10.014;2022-09-17T04:16:12;11.60;99.90
29363;DHT22;16349;53.672;10.014;2022-09-17T04:18:39;11.60;99.90
29363;DHT22;16349;53.672;10.014;2022-09-17T04:21:06;11.60;99.90
29363;DHT22;16349;53.672;10.014;2022-09-17T04:23:32;11.60;99.90
29363;DHT22;16349;53.672;10.014;2022-09-17T04:25:59;11.60;99.90
29363;DHT22;16349;53.672;10.014;2022-09-17T04:28:26;11.50;99.90
29363;DHT22;16349;53.672;10.014;2022-09-17T04:30:54;11.50;99.90
29363;DHT22;16349;53.672;10.014;2022-09-17T04:33:22;11.50;99.90
29363;DHT22;16349;53.672;10.014;2022-09-17T04:35:49;11.50;99.90
29363;DHT22;16349;53.672;10.014;2022-09-17T04:38:16;11.50;99.90
29363;DHT22;16349;53.672;10.014;2022-09-17T04:40:45;11.50;99.90
29363;DHT22;16349;53.672;10.014;2022-09-17T04:43:12;11.50;99.90
29363;DHT22;16349;53.672;10.014;2022-09-17T04:45:39;11.50;99.90
29363;DHT22;16349;53.672;10.014;2022-09-17T04:48:08;11.50;99.90
29363;DHT22;16349;53.672;10.014;2022-09-17T04:50:35;11.50;99.90
29363;DHT22;16349;53.672;10.014;2022-09-17T04:53:02;11.40;99.90
29363;DHT22;16349;53.672;10.014;2022-09-17T04:55:29;11.40;99.90
29363;DHT22;16349;53.672;10.014;2022-09-17T04:57:56;11.40;99.90
29363;DHT22;16349;53.672;10.014;2022-09-17T05:00:23;11.40;99.90
29363;DHT22;16349;53.672;10.014;2022-09-17T05:02:52;11.30;99.90
29363;DHT22;16349;53.672;10.014;2022-09-17T05:05:21;11.30;99.90
29363;DHT22;16349;53.672;10.014;2022-09-17T05:07:49;11.40;99.90
29363;DHT22;16349;53.672;10.014;2022-09-17T05:10:17;11.30;99.90
29363;DHT22;16349;53.672;10.014;2022-09-17T05:12:48;11.30;99.90
29363;DHT22;16349;53.672;10.014;2022-09-17T05:15:15;11.30;99.90
29363;DHT22;16349;53.672;10.014;2022-09-17T05:17:42;11.30;99.90
29363;DHT22;16349;53.672;10.014;2022-09-17T05:20:09;11.30;99.90
29363;DHT22;16349;53.672;10.014;2022-09-17T05:22:41;11.30;99.90
29363;DHT22;16349;53.672;10.014;2022-09-17T05:25:08;11.20;99.90
29363;DHT22;16349;53.672;10.014;2022-09-17T05:27:35;11.20;99.90
29363;DHT22;16349;53.672;10.014;2022-09-17T05:30:03;11.20;99.90
29363;DHT22;16349;53.672;10.014;2022-09-17T05:32:30;11.20;99.90
29363;DHT22;16349;53.672;10.014;2022-09-17T05:34:57;11.20;99.90
29363;DHT22;16349;53.672;10.014;2022-09-17T05:37:24;11.20;99.90
29363;DHT22;16349;53.672;10.014;2022-09-17T05:39:53;11.20;99.90
29363;DHT22;16349;53.672;10.014;2022-09-17T05:42:20;11.20;99.90
29363;DHT22;16349;53.672;10.014;2022-09-17T05:44:47;11.30;99.90
29363;DHT22;16349;53.672;10.014;2022-09-17T05:47:14;11.30;99.90
29363;DHT22;16349;53.672;10.014;2022-09-17T05:49:41;11.30;99.90
29363;DHT22;16349;53.672;10.014;2022-09-17T05:52:08;11.30;99.90
29363;DHT22;16349;53.672;10.014;2022-09-17T05:54:34;11.20;99.90
29363;DHT22;16349;53.672;10.014;2022-09-17T05:57:03;11.20;99.90
29363;DHT22;16349;53.672;10.014;2022-09-17T05:59:30;11.30;99.90
29363;DHT22;16349;53.672;10.014;2022-09-17T06:01:57;11.30;99.90
29363;DHT22;16349;53.672;10.014;2022-09-17T06:04:24;11.30;99.90
29363;DHT22;16349;53.672;10.014;2022-09-17T06:06:51;11.20;99.90
29363;DHT22;16349;53.672;10.014;2022-09-17T06:09:18;11.20;99.90
29363;DHT22;16349;53.672;10.014;2022-09-17T06:11:45;11.20;99.90
29363;DHT22;16349;53.672;10.014;2022-09-17T06:14:14;11.20;99.90
29363;DHT22;16349;53.672;10.014;2022-09-17T06:16:40;11.20;99.90
29363;DHT22;16349;53.672;10.014;2022-09-17T06:19:07;11.20;99.90
29363;DHT22;16349;53.672;10.014;2022-09-17T06:21:34;11.30;99.90
29363;DHT22;16349;53.672;10.014;2022-09-17T06:24:01;11.30;99.90
29363;DHT22;16349;53.672;10.014;2022-09-17T06:26:28;11.30;99.90
29363;DHT22;16349;53.672;10.014;2022-09-17T06:28:55;11.30;99.90
29363;DHT22;16349;53.672;10.014;2022-09-17T06:31:25;11.30;99.90
29363;DHT22;16349;53.672;10.014;2022-09-17T06:33:52;11.30;99.90
29363;DHT22;16349;53.672;10.014;2022-09-17T06:36:20;11.30;99.90
29363;DHT22;16349;53.672;10.014;2022-09-17T06:38:48;11.30;99.90
29363;DHT22;16349;53.672;10.014;2022-09-17T06:41:15;11.20;99.90
29363;DHT22;16349;53.672;10.014;2022-09-17T06:43:43;11.20;99.90
29363;DHT22;16349;53.672;10.014;2022-09-17T06:46:10;11.10;99.90
29363;DHT22;16349;53.672;10.014;2022-09-17T06:48:39;11.20;99.90
29363;DHT22;16349;53.672;10.014;2022-09-17T06:51:07;11.20;99.90
29363;DHT22;16349;53.672;10.014;2022-09-17T06:53:35;11.20;99.90
29363;DHT22;16349;53.672;10.014;2022-09-17T06:56:03;11.20;99.90
29363;DHT22;16349;53.672;10.014;2022-09-17T06:58:31;11.30;99.90
29363;DHT22;16349;53.672;10.014;2022-09-17T07:00:59;11.40;99.90
29363;DHT22;16349;53.672;10.014;2022-09-17T07:03:26;11.40;99.90
29363;DHT22;16349;53.672;10.014;2022-09-17T07:05:55;11.50;99.90
29363;DHT22;16349;53.672;10.014;2022-09-17T07:08:22;11.60;99.90
29363;DHT22;16349;53.672;10.014;2022-09-17T07:10:53;11.60;99.90
29363;DHT22;16349;53.672;10.014;2022-09-17T07:13:20;11.70;99.90
29363;DHT22;16349;53.672;10.014;2022-09-17T07:15:52;11.80;99.90
29363;DHT22;16349;53.672;10.014;2022-09-17T07:18:19;12.00;99.90
29363;DHT22;16349;53.672;10.014;2022-09-17T07:20:51;12.00;99.90
29363;DHT22;16349;53.672;10.014;2022-09-17T07:23:20;12.10;99.90
29363;DHT22;16349;53.672;10.014;2022-09-17T07:25:50;12.10;99.90
29363;DHT22;16349;53.672;10.014;2022-09-17T07:28:17;12.10;99.90
29363;DHT22;16349;53.672;10.014;2022-09-17T07:30:44;12.00;99.90
29363;DHT22;16349;53.672;10.014;2022-09-17T07:33:11;12.00;99.90
29363;DHT22;16349;53.672;10.014;2022-09-17T07:35:38;12.00;99.90
29363;DHT22;16349;53.672;10.014;2022-09-17T07:38:05;12.10;99.90
29363;DHT22;16349;53.672;10.014;2022-09-17T07:40:33;12.10;99.90
29363;DHT22;16349;53.672;10.014;2022-09-17T07:43:00;12.10;99.90
29363;DHT22;16349;53.672;10.014;2022-09-17T07:45:27;12.10;99.90
29363;DHT22;16349;53.672;10.014;2022-09-17T07:47:54;12.20;99.90
29363;DHT22;16349;53.672;10.014;2022-09-17T07:50:21;12.20;99.90
29363;DHT22;16349;53.672;10.014;2022-09-17T07:52:48;12.20;99.90
29363;DHT22;16349;53.672;10.014;2022-09-17T07:55:15;12.30;99.90
29363;DHT22;16349;53.672;10.014;2022-09-17T07:57:49;12.40;99.90
29363;DHT22;16349;53.672;10.014;2022-09-17T08:00:17;12.40;99.90
29363;DHT22;16349;53.672;10.014;2022-09-17T08:02:43;12.40;99.90
29363;DHT22;16349;53.672;10.014;2022-09-17T08:05:10;12.50;99.90
29363;DHT22;16349;53.672;10.014;2022-09-17T08:07:38;12.60;99.90
29363;DHT22;16349;53.672;10.014;2022-09-17T08:10:05;12.60;99.90
29363;DHT22;16349;53.672;10.014;2022-09-17T08:12:32;12.70;99.90
29363;DHT22;16349;53.672;10.014;2022-09-17T08:15:00;12.80;99.90
29363;DHT22;16349;53.672;10.014;2022-09-17T08:17:27;12.90;99.90
29363;DHT22;16349;53.672;10.014;2022-09-17T08:19:54;13.00;99.90
29363;DHT22;16349;53.672;10.014;2022-09-17T08:22:21;13.10;99.90
29363;DHT22;16349;53.672;10.014;2022-09-17T08:24:48;13.10;99.90
29363;DHT22;16349;53.672;10.014;2022-09-17T08:27:15;13.10;99.90
29363;DHT22;16349;53.672;10.014;2022-09-17T08:29:42;13.10;99.90
29363;DHT22;16349;53.672;10.014;2022-09-17T08:32:10;13.20;99.90
29363;DHT22;16349;53.672;10.014;2022-09-17T08:34:37;13.30;99.90
29363;DHT22;16349;53.672;10.014;2022-09-17T08:37:04;13.40;99.90
29363;DHT22;16349;53.672;10.014;2022-09-17T08:39:31;13.40;99.90
29363;DHT22;16349;53.672;10.014;2022-09-17T08:42:06;13.50;99.90
29363;DHT22;16349;53.672;10.014;2022-09-17T08:44:39;13.50;99.90
29363;DHT22;16349;53.672;10.014;2022-09-17T08:47:16;13.50;99.90
29363;DHT22;16349;53.672;10.014;2022-09-17T08:49:50;13.50;99.90
29363;DHT22;16349;53.672;10.014;2022-09-17T08:52:42;13.60;99.90
29363;DHT22;16349;53.672;10.014;2022-09-17T08:55:17;13.60;99.90
29363;DHT22;16349;53.672;10.014;2022-09-17T08:57:53;13.60;99.90
29363;DHT22;16349;53.672;10.014;2022-09-17T09:00:24;13.50;99.90
29363;DHT22;16349;53.672;10.014;2022-09-17T09:03:08;13.10;99.90
29363;DHT22;16349;53.672;10.014;2022-09-17T09:05:42;12.70;99.90
29363;DHT22;16349;53.672;10.014;2022-09-17T09:08:16;12.50;99.90
29363;DHT22;16349;53.672;10.014;2022-09-17T09:10:49;12.40;99.90
29363;DHT22;16349;53.672;10.014;2022-09-17T09:13:19;12.30;99.90
29363;DHT22;16349;53.672;10.014;2022-09-17T09:15:51;12.30;99.90
29363;DHT22;16349;53.672;10.014;2022-09-17T09:18:23;12.30;99.90
29363;DHT22;16349;53.672;10.014;2022-09-17T09:20:52;12.30;99.90
29363;DHT22;16349;53.672;10.014;2022-09-17T09:23:25;12.20;99.90
29363;DHT22;16349;53.672;10.014;2022-09-17T09:25:56;12.10;99.90
29363;DHT22;16349;53.672;10.014;2022-09-17T09:28:36;12.00;99.90
29363;DHT22;16349;53.672;10.014;2022-09-17T09:31:16;12.00;99.90
29363;DHT22;16349;53.672;10.014;2022-09-17T09:33:46;11.90;99.90
29363;DHT22;16349;53.672;10.014;2022-09-17T09:36:15;11.90;99.90
29363;DHT22;16349;53.672;10.014;2022-09-17T09:38:52;11.90;99.90
29363;DHT22;16349;53.672;10.014;2022-09-17T09:41:26;11.80;99.90
29363;DHT22;16349;53.672;10.014;2022-09-17T09:44:00;11.80;99.90
29363;DHT22;16349;53.672;10.014;2022-09-17T09:46:37;11.90;99.90
29363;DHT22;16349;53.672;10.014;2022-09-17T09:49:17;12.00;99.90
29363;DHT22;16349;53.672;10.014;2022-09-17T09:51:53;12.20;99.90
29363;DHT22;16349;53.672;10.014;2022-09-17T09:54:35;12.30;99.90
29363;DHT22;16349;53.672;10.014;2022-09-17T09:57:05;12.40;99.90
29363;DHT22;16349;53.672;10.014;2022-09-17T09:59:32;12.30;99.90
29363;DHT22;16349;53.672;10.014;2022-09-17T10:02:02;12.40;99.90
29363;DHT22;16349;53.672;10.014;2022-09-17T10:04:30;12.40;99.90
29363;DHT22;16349;53.672;10.014;2022-09-17T10:07:00;12.50;99.90
29363;DHT22;16349;53.672;10.014;2022-09-17T10:09:29;12.70;99.90
29363;DHT22;16349;53.672;10.014;2022-09-17T10:12:05;12.80;99.90
29363;DHT22;16349;53.672;10.014;2022-09-17T10:14:40;12.90;99.90
29363;DHT22;16349;53.672;10.014;2022-09-17T10:17:16;12.90;99.90
29363;DHT22;16349;53.672;10.014;2022-09-17T10:19:46;13.00;99.90
29363;DHT22;16349;53.672;10.014;2022-09-17T10:22:21;13.00;99.90
29363;DHT22;16349;53.672;10.014;2022-09-17T10:24:52;13.00;99.90
29363;DHT22;16349;53.672;10.014;2022-09-17T10:27:20;13.00;99.90
29363;DHT22;16349;53.672;10.014;2022-09-17T10:29:50;13.20;99.90
29363;DHT22;16349;53.672;10.014;2022-09-17T10:32:19;13.20;99.90
29363;DHT22;16349;53.672;10.014;2022-09-17T10:34:58;13.20;99.90
29363;DHT22;16349;53.672;10.014;2022-09-17T10:37:42;13.10;99.90
29363;DHT22;16349;53.672;10.014;2022-09-17T10:40:25;13.20;99.90
29363;DHT22;16349;53.672;10.014;2022-09-17T10:43:18;13.20;99.90
29363;DHT22;16349;53.672;10.014;2022-09-17T10:45:55;13.20;99.90
29363;DHT22;16349;53.672;10.014;2022-09-17T10:48:23;13.10;99.90
29363;DHT22;16349;53.672;10.014;2022-09-17T10:50:55;13.10;99.90
29363;DHT22;16349;53.672;10.014;2022-09-17T10:53:24;13.00;99.90
29363;DHT22;16349;53.672;10.014;2022-09-17T10:55:55;13.00;99.90
29363;DHT22;16349;53.672;10.014;2022-09-17T10:58:32;13.00;99.90
29363;DHT22;16349;53.672;10.014;2022-09-17T11:01:07;13.10;99.90
29363;DHT22;16349;53.672;10.014;2022-09-17T11:03:52;13.20;99.90
29363;DHT22;16349;53.672;10.014;2022-09-17T11:06:53;13.20;99.90
29363;DHT22;16349;53.672;10.014;2022-09-17T11:09:36;13.30;99.90
29363;DHT22;16349;53.672;10.014;2022-09-17T11:12:18;13.30;99.90
29363;DHT22;16349;53.672;10.014;2022-09-17T11:14:54;13.30;99.90
29363;DHT22;16349;53.672;10.014;2022-09-17T11:17:34;13.50;99.90
29363;DHT22;16349;53.672;10.014;2022-09-17T11:20:12;13.50;99.90
29363;DHT22;16349;53.672;10.014;2022-09-17T11:22:53;13.40;99.90
29363;DHT22;16349;53.672;10.014;2022-09-17T11:25:35;13.50;99.90
29363;DHT22;16349;53.672;10.014;2022-09-17T11:28:12;13.50;99.90
29363;DHT22;16349;53.672;10.014;2022-09-17T11:30:51;13.60;99.90
29363;DHT22;16349;53.672;10.014;2022-09-17T11:33:27;13.70;99.90
29363;DHT22;16349;53.672;10.014;2022-09-17T11:36:00;13.70;99.90
29363;DHT22;16349;53.672;10.014;2022-09-17T11:38:37;13.70;99.90
29363;DHT22;16349;53.672;10.014;2022-09-17T11:41:08;13.70;99.90
29363;DHT22;16349;53.672;10.014;2022-09-17T11:43:39;13.80;99.90
29363;DHT22;16349;53.672;10.014;2022-09-17T11:46:09;13.80;99.90
29363;DHT22;16349;53.672;10.014;2022-09-17T11:48:44;13.90;99.90
29363;DHT22;16349;53.672;10.014;2022-09-17T11:51:36;14.00;99.90
29363;DHT22;16349;53.672;10.014;2022-09-17T11:54:13;14.20;99.90
29363;DHT22;16349;53.672;10.014;2022-09-17T11:56:43;14.10;99.90
29363;DHT22;16349;53.672;10.014;2022-09-17T11:59:15;14.10;99.90
29363;DHT22;16349;53.672;10.014;2022-09-17T12:01:47;14.20;99.90
29363;DHT22;16349;53.672;10.014;2022-09-17T12:04:33;14.10;99.90
29363;DHT22;16349;53.672;10.014;2022-09-17T12:07:10;14.20;99.90
29363;DHT22;16349;53.672;10.014;2022-09-17T12:09:45;14.10;99.90
29363;DHT22;16349;53.672;10.014;2022-09-17T12:12:17;14.10;99.90
29363;DHT22;16349;53.672;10.014;2022-09-17T12:14:48;14.00;99.90
29363;DHT22;16349;53.672;10.014;2022-09-17T12:17:19;14.00;99.90
29363;DHT22;16349;53.672;10.014;2022-09-17T12:19:50;14.10;99.90
29363;DHT22;16349;53.672;10.014;2022-09-17T12:22:21;14.20;99.90
29363;DHT22;16349;53.672;10.014;2022-09-17T12:24:51;14.20;99.90
29363;DHT22;16349;53.672;10.014;2022-09-17T12:27:29;14.40;99.90
29363;DHT22;16349;53.672;10.014;2022-09-17T12:30:11;14.50;99.90
29363;DHT22;16349;53.672;10.014;2022-09-17T12:32:50;14.60;99.90
29363;DHT22;16349;53.672;10.014;2022-09-17T12:35:47;14.60;99.90
29363;DHT22;16349;53.672;10.014;2022-09-17T12:38:29;14.50;99.90
29363;DHT22;16349;53.672;10.014;2022-09-17T12:41:06;14.60;99.90
29363;DHT22;16349;53.672;10.014;2022-09-17T12:43:50;14.60;99.90
29363;DHT22;16349;53.672;10.014;2022-09-17T12:46:31;14.80;99.90
29363;DHT22;16349;53.672;10.014;2022-09-17T12:49:18;14.90;99.90
29363;DHT22;16349;53.672;10.014;2022-09-17T12:51:53;15.00;99.90
29363;DHT22;16349;53.672;10.014;2022-09-17T12:54:42;15.20;99.90
29363;DHT22;16349;53.672;10.014;2022-09-17T12:57:19;15.20;99.90
29363;DHT22;16349;53.672;10.014;2022-09-17T12:59:50;15.10;99.90
29363;DHT22;16349;53.672;10.014;2022-09-17T13:02:23;15.00;99.90
29363;DHT22;16349;53.672;10.014;2022-09-17T13:05:30;15.10;99.90
29363;DHT22;16349;53.672;10.014;2022-09-17T13:08:33;15.20;99.90
29363;DHT22;16349;53.672;10.014;2022-09-17T13:11:14;15.50;99.90
29363;DHT22;16349;53.672;10.014;2022-09-17T13:13:47;15.90;99.90
29363;DHT22;16349;53.672;10.014;2022-09-17T13:16:18;16.20;99.90
29363;DHT22;16349;53.672;10.014;2022-09-17T13:18:54;16.70;99.90
29363;DHT22;16349;53.672;10.014;2022-09-17T13:21:30;17.10;99.90
29363;DHT22;16349;53.672;10.014;2022-09-17T13:23:59;17.20;99.90
29363;DHT22;16349;53.672;10.014;2022-09-17T13:26:34;17.30;99.90
29363;DHT22;16349;53.672;10.014;2022-09-17T13:31:46;17.50;99.90
29363;DHT22;16349;53.672;10.014;2022-09-17T13:34:35;18.10;99.90
29363;DHT22;16349;53.672;10.014;2022-09-17T13:37:02;17.80;99.90
29363;DHT22;16349;53.672;10.014;2022-09-17T13:39:38;17.40;99.90
29363;DHT22;16349;53.672;10.014;2022-09-17T13:42:11;17.30;99.90
29363;DHT22;16349;53.672;10.014;2022-09-17T13:44:43;17.60;99.90
29363;DHT22;16349;53.672;10.014;2022-09-17T13:47:17;17.80;99.90
29363;DHT22;16349;53.672;10.014;2022-09-17T13:49:49;17.30;99.90
29363;DHT22;16349;53.672;10.014;2022-09-17T13:52:37;16.50;99.90
29363;DHT22;16349;53.672;10.014;2022-09-17T13:55:06;16.00;99.90
29363;DHT22;16349;53.672;10.014;2022-09-17T13:57:45;15.60;99.90
29363;DHT22;16349;53.672;10.014;2022-09-17T14:06:47;14.30;99.90
29363;DHT22;16349;53.672;10.014;2022-09-17T14:09:39;14.10;99.90
29363;DHT22;16349;53.672;10.014;2022-09-17T14:12:52;14.10;99.90
29363;DHT22;16349;53.672;10.014;2022-09-17T14:18:36;14.10;99.90
29363;DHT22;16349;53.672;10.014;2022-09-17T14:23:59;14.30;99.90
29363;DHT22;16349;53.672;10.014;2022-09-17T14:26:51;14.50;99.90
29363;DHT22;16349;53.672;10.014;2022-09-17T14:29:32;14.60;99.90
29363;DHT22;16349;53.672;10.014;2022-09-17T14:32:00;14.60;99.90
29363;DHT22;16349;53.672;10.014;2022-09-17T14:34:27;14.40;99.90
29363;DHT22;16349;53.672;10.014;2022-09-17T14:36:55;14.10;99.90
29363;DHT22;16349;53.672;10.014;2022-09-17T14:39:27;13.40;99.90
29363;DHT22;16349;53.672;10.014;2022-09-17T14:41:54;13.60;99.90
29363;DHT22;16349;53.672;10.014;2022-09-17T14:44:24;13.50;99.90
29363;DHT22;16349;53.672;10.014;2022-09-17T14:46:55;13.40;99.90
29363;DHT22;16349;53.672;10.014;2022-09-17T14:49:25;13.40;99.90
29363;DHT22;16349;53.672;10.014;2022-09-17T14:51:57;13.30;99.90
29363;DHT22;16349;53.672;10.014;2022-09-17T14:54:26;13.50;99.90
29363;DHT22;16349;53.672;10.014;2022-09-17T14:56:56;13.20;99.90
29363;DHT22;16349;53.672;10.014;2022-09-17T14:59:40;13.20;99.90
29363;DHT22;16349;53.672;10.014;2022-09-17T15:02:22;13.20;99.90
29363;DHT22;16349;53.672;10.014;2022-09-17T15:04:52;13.20;99.90
29363;DHT22;16349;53.672;10.014;2022-09-17T15:07:20;13.20;99.90
29363;DHT22;16349;53.672;10.014;2022-09-17T15:09:48;13.20;99.90
29363;DHT22;16349;53.672;10.014;2022-09-17T15:12:23;13.30;99.90
29363;DHT22;16349;53.672;10.014;2022-09-17T15:14:51;13.20;99.90
29363;DHT22;16349;53.672;10.014;2022-09-17T15:17:19;13.20;99.90
29363;DHT22;16349;53.672;10.014;2022-09-17T15:19:48;13.20;99.90
29363;DHT22;16349;53.672;10.014;2022-09-17T15:22:21;13.20;99.90
29363;DHT22;16349;53.672;10.014;2022-09-17T15:24:52;13.20;99.90
29363;DHT22;16349;53.672;10.014;2022-09-17T15:27:24;13.10;99.90
29363;DHT22;16349;53.672;10.014;2022-09-17T15:29:55;13.20;99.90
29363;DHT22;16349;53.672;10.014;2022-09-17T15:32:24;13.20;99.90
29363;DHT22;16349;53.672;10.014;2022-09-17T15:35:16;13.20;99.90
29363;DHT22;16349;53.672;10.014;2022-09-17T15:37:45;13.30;99.90
29363;DHT22;16349;53.672;10.014;2022-09-17T15:40:22;13.30;99.90
29363;DHT22;16349;53.672;10.014;2022-09-17T15:42:50;13.30;99.90
29363;DHT22;16349;53.672;10.014;2022-09-17T15:45:18;13.40;99.90
29363;DHT22;16349;53.672;10.014;2022-09-17T15:47:52;13.40;99.90
29363;DHT22;16349;53.672;10.014;2022-09-17T15:50:20;13.40;99.90
29363;DHT22;16349;53.672;10.014;2022-09-17T15:52:48;13.50;99.90
29363;DHT22;16349;53.672;10.014;2022-09-17T15:55:34;13.50;99.90
29363;DHT22;16349;53.672;10.014;2022-09-17T15:58:03;13.40;99.90
29363;DHT22;16349;53.672;10.014;2022-09-17T16:00:31;13.40;99.90